Airfield :
LOGIN :

Register | Disclaimer

   EN    FR    IT 

 










Legend :    VFR   Marginal VFR   IFR   Intensive IFR   Very Intensive IFR
Visi :
Ceiling :
>= 8 km
>= 3000ft
5 to 8 km
1000 to 3000 ft
1500m to 5 km
500 to 1000 ft
800 to 1500m
200 to 500 ft
< 800m
< 200 ft
Symbols :   Thunderstorms  Fog  Heavy snow  Heavy precipitations  Wind > 20 kt
SIGMETs :     Misc.  Thunderstorms  Icing  Turbulence  Mountain Waves  Volcanic Ashes






- Airport Elevation : 326 ft
- IATA code : LCG


LECO - A Coruna

CURRENT METAR :
  • 030730Z 02008KT 300V060 9999 FEW014 OVC020 18/15 Q1020 NOSIG

EXPIRED METARs :
  • 030700Z 02008KT 320V080 9999 OVC016 17/14 Q1020 NOSIG
  • 030630Z 02007KT 320V060 9999 OVC016 17/14 Q1020 NOSIG
  • 030600Z 02007KT 300V070 9999 OVC017 17/14 Q1020 NOSIG
  • 030530Z 02008KT 340V080 9999 OVC017 17/14 Q1020 NOSIG
  • 030500Z 03008KT 320V070 9999 OVC020 17/14 Q1020 NOSIG
  • 030430Z 01007KT 320V060 9999 OVC022 17/14 Q1020 NOSIG

TAF TAF LECO
Valid from the 03 at 03:00 until the 04 at 03:00 UTC


030200Z 0303/0403 02009KT 9999 SCT020 TX22/0314Z TN16/0305Z
PROB30
TEMPO 0303/0308 BKN010
PROB30
TEMPO 0313/0319 FEW050CB
PROB40
TEMPO 0316/0319 02015G25KT



MET'MAP, your aeronautical weather chart ! - Copyright ORBIFLY December 2007 - Disclaimer

ORBIFLY MET'MAP TEAM :

Programming & Development : Alexandra Zaïnal
Original concept : Baudouin d'Aumeries
Technical & hardware support : Manuel Goepfert
Assistance : Marc-Olivier Méhu




SOURCES & CREDITS :

   NOAA